createdAt,value
2018-05-10T00:01:35.691Z,13.10
2018-05-10T00:04:04.267Z,13.10
2018-05-10T00:06:32.573Z,13.10
2018-05-10T00:09:00.793Z,13.10
2018-05-10T00:11:29.220Z,13.30
2018-05-10T00:13:57.461Z,13.30
2018-05-10T00:16:25.716Z,13.10
2018-05-10T00:18:53.992Z,13.10
2018-05-10T00:21:22.233Z,13.00
2018-05-10T00:23:51.197Z,13.00
2018-05-10T00:26:19.655Z,13.00
2018-05-10T00:28:49.045Z,13.00
2018-05-10T00:31:18.106Z,12.90
2018-05-10T00:33:46.384Z,12.80
2018-05-10T00:36:16.180Z,12.80
2018-05-10T00:38:45.202Z,12.80
2018-05-10T00:41:14.255Z,12.90
2018-05-10T00:43:43.380Z,12.90
2018-05-10T00:46:11.628Z,12.90
2018-05-10T00:48:40.735Z,13.00
2018-05-10T00:51:09.444Z,13.00
2018-05-10T00:53:37.747Z,13.00
2018-05-10T00:56:06.067Z,13.00
2018-05-10T00:58:35.085Z,13.20
2018-05-10T01:01:03.397Z,13.20
2018-05-10T01:03:31.626Z,13.10
2018-05-10T01:05:59.931Z,13.20
2018-05-10T01:08:28.205Z,13.10
2018-05-10T01:10:56.419Z,13.00
2018-05-10T01:13:30.174Z,12.90
2018-05-10T01:16:03.990Z,13.10
2018-05-10T01:18:39.220Z,13.00
2018-05-10T01:21:12.968Z,13.10
2018-05-10T01:23:46.805Z,13.00
2018-05-10T01:26:21.251Z,13.00
2018-05-10T01:28:55.072Z,13.00
2018-05-10T01:31:28.868Z,13.10
2018-05-10T01:34:02.829Z,13.10
2018-05-10T01:36:37.291Z,13.10
2018-05-10T01:39:11.137Z,13.10
2018-05-10T01:41:45.117Z,13.10
2018-05-10T01:44:19.225Z,13.00
2018-05-10T01:46:53.221Z,12.90
2018-05-10T01:49:27.070Z,12.90
2018-05-10T01:52:01.540Z,12.90
2018-05-10T01:54:35.428Z,12.90
2018-05-10T01:57:09.422Z,12.90
2018-05-10T01:59:43.101Z,12.90
2018-05-10T02:02:17.119Z,13.10
2018-05-10T02:04:51.116Z,13.00
2018-05-10T02:07:25.690Z,13.00
2018-05-10T02:09:59.559Z,13.00
2018-05-10T02:12:33.363Z,13.30
2018-05-10T02:15:07.160Z,13.20
2018-05-10T02:17:40.916Z,13.20
2018-05-10T02:20:14.672Z,13.20
2018-05-10T02:22:48.403Z,13.10
2018-05-10T02:25:22.460Z,13.10
2018-05-10T02:27:56.239Z,13.20
2018-05-10T02:30:31.712Z,13.00
2018-05-10T02:33:05.645Z,13.00
2018-05-10T02:35:39.453Z,13.00
2018-05-10T02:38:13.260Z,13.20
2018-05-10T02:40:47.964Z,13.30
2018-05-10T02:43:23.442Z,13.10
2018-05-10T02:45:58.090Z,13.50
2018-05-10T02:48:32.069Z,13.50
2018-05-10T02:51:06.673Z,13.00
2018-05-10T02:53:41.020Z,12.90
2018-05-10T02:56:14.903Z,12.90
2018-05-10T02:58:49.517Z,12.90
2018-05-10T03:01:23.354Z,12.90
2018-05-10T03:03:57.396Z,12.90
2018-05-10T03:06:31.886Z,12.80
2018-05-10T03:09:06.165Z,12.70
2018-05-10T03:11:39.967Z,12.80
2018-05-10T03:14:13.831Z,12.80
2018-05-10T03:16:47.638Z,12.70
2018-05-10T03:19:21.530Z,13.00
2018-05-10T03:21:55.526Z,12.90
2018-05-10T03:24:30.257Z,13.00
2018-05-10T03:27:04.757Z,13.00
2018-05-10T03:29:39.504Z,13.10
2018-05-10T03:32:13.529Z,13.10
2018-05-10T03:34:47.524Z,13.10
2018-05-10T03:37:21.532Z,13.00
2018-05-10T03:39:56.221Z,13.40
2018-05-10T03:42:30.066Z,13.30
2018-05-10T03:45:03.888Z,13.10
2018-05-10T03:47:37.802Z,12.90
2018-05-10T03:50:12.530Z,12.90
2018-05-10T03:52:46.359Z,12.90
2018-05-10T03:55:20.290Z,12.80
2018-05-10T03:57:54.947Z,12.80
2018-05-10T04:00:28.640Z,12.80
2018-05-10T04:06:28.141Z,12.70
2018-05-10T04:09:14.547Z,12.60
2018-05-10T04:11:48.437Z,12.60
2018-05-10T04:14:22.268Z,12.60
2018-05-10T04:16:56.125Z,12.80
2018-05-10T04:19:30.853Z,12.60
2018-05-10T04:22:04.787Z,12.60
2018-05-10T04:24:38.687Z,12.60
2018-05-10T04:27:13.575Z,13.40
2018-05-10T04:29:47.274Z,13.30
2018-05-10T04:32:22.562Z,13.10
2018-05-10T04:34:57.410Z,13.10
2018-05-10T04:37:31.428Z,12.90
2018-05-10T04:40:05.756Z,12.90
2018-05-10T04:42:40.046Z,12.70
2018-05-10T04:45:13.787Z,12.70
2018-05-10T04:47:47.534Z,12.70
2018-05-10T04:50:21.407Z,12.70
2018-05-10T04:52:55.465Z,12.70
2018-05-10T04:55:29.576Z,12.80
2018-05-10T04:58:03.621Z,13.00
2018-05-10T05:00:44.384Z,13.00
2018-05-10T05:03:19.158Z,13.10
2018-05-10T05:05:53.666Z,13.20
2018-05-10T05:08:28.430Z,13.10
2018-05-10T05:11:02.221Z,13.10
2018-05-10T05:13:35.991Z,13.00
2018-05-10T05:16:09.904Z,13.20
2018-05-10T05:18:43.809Z,13.20
2018-05-10T05:21:17.546Z,13.10
2018-05-10T05:23:51.391Z,13.20
2018-05-10T05:26:25.358Z,13.30
2018-05-10T05:28:59.140Z,13.20
2018-05-10T05:31:32.947Z,13.30
2018-05-10T05:34:07.007Z,13.40
2018-05-10T05:36:40.797Z,13.40
2018-05-10T05:39:15.433Z,13.80
2018-05-10T05:41:49.317Z,13.80
2018-05-10T05:44:23.319Z,13.80
2018-05-10T05:46:57.161Z,13.60
2018-05-10T05:49:30.882Z,13.50
2018-05-10T05:52:05.536Z,13.60
2018-05-10T05:54:39.574Z,13.60
2018-05-10T05:57:14.152Z,13.80
2018-05-10T05:59:48.057Z,13.80
2018-05-10T06:02:21.925Z,14.20
2018-05-10T06:04:56.421Z,14.10
2018-05-10T06:07:30.946Z,13.90
2018-05-10T06:10:04.717Z,13.90
2018-05-10T06:12:39.721Z,13.80
2018-05-10T06:15:13.494Z,13.80
2018-05-10T06:17:47.428Z,13.90
2018-05-10T06:20:21.275Z,14.30
2018-05-10T06:22:55.080Z,14.30
2018-05-10T06:25:28.955Z,14.20
2018-05-10T06:28:02.957Z,14.30
2018-05-10T06:30:36.820Z,14.50
2018-05-10T06:33:10.651Z,14.50
2018-05-10T06:35:44.624Z,14.90
2018-05-10T06:38:18.274Z,14.50
2018-05-10T06:40:52.082Z,14.10
2018-05-10T06:43:25.727Z,14.10
2018-05-10T06:45:59.941Z,14.20
2018-05-10T06:48:33.978Z,14.40
2018-05-10T06:51:08.411Z,14.30
2018-05-10T06:53:42.123Z,14.30
2018-05-10T06:56:16.050Z,14.40
2018-05-10T06:58:50.040Z,14.40
2018-05-10T07:01:24.594Z,14.40
2018-05-10T07:03:58.467Z,14.40
2018-05-10T07:06:32.300Z,14.40
2018-05-10T07:09:06.132Z,14.40
2018-05-10T07:11:40.042Z,14.50
2018-05-10T07:14:13.933Z,14.50
2018-05-10T07:16:47.870Z,14.50
2018-05-10T07:19:23.135Z,14.50
2018-05-10T07:21:57.758Z,14.50
2018-05-10T07:24:31.596Z,14.50
2018-05-10T07:27:07.137Z,15.40
2018-05-10T07:29:41.508Z,15.40
2018-05-10T07:32:15.533Z,15.20
2018-05-10T07:34:50.121Z,15.40
2018-05-10T07:37:24.003Z,15.40
2018-05-10T07:39:57.685Z,15.10
2018-05-10T07:42:32.181Z,14.80
2018-05-10T07:45:06.101Z,14.80
2018-05-10T07:47:40.182Z,15.30
2018-05-10T07:50:08.420Z,17.60
2018-05-10T07:52:36.662Z,17.00
2018-05-10T07:55:04.970Z,15.70
2018-05-10T07:57:33.221Z,15.30
2018-05-10T08:00:01.393Z,15.20
2018-05-10T08:02:29.675Z,15.40
2018-05-10T08:04:58.101Z,15.30
2018-05-10T08:07:26.389Z,15.30
2018-05-10T08:09:55.689Z,15.60
2018-05-10T08:12:24.020Z,15.60
2018-05-10T08:14:52.214Z,15.70
2018-05-10T08:17:20.510Z,15.80
2018-05-10T08:19:48.651Z,15.80
2018-05-10T08:22:16.969Z,16.40
2018-05-10T08:24:45.182Z,16.10
2018-05-10T08:27:13.396Z,15.90
2018-05-10T08:29:47.776Z,15.20
2018-05-10T08:32:16.891Z,15.60
2018-05-10T08:34:45.932Z,15.10
2018-05-10T08:37:14.476Z,15.10
2018-05-10T08:39:43.033Z,15.00
2018-05-10T08:42:11.291Z,15.00
2018-05-10T08:44:39.545Z,15.60
2018-05-10T08:47:07.762Z,15.90
2018-05-10T08:49:36.039Z,15.50
2018-05-10T08:52:04.272Z,15.60
2018-05-10T08:54:34.181Z,16.30
2018-05-10T08:57:02.362Z,16.20
2018-05-10T08:59:30.578Z,16.70
2018-05-10T09:02:00.424Z,16.50
2018-05-10T09:04:28.779Z,16.50
2018-05-10T09:06:57.026Z,16.20
2018-05-10T09:09:25.233Z,15.90
2018-05-10T09:11:54.207Z,17.10
2018-05-10T09:14:22.444Z,17.10
2018-05-10T09:16:50.641Z,17.20
2018-05-10T09:19:18.858Z,17.70
2018-05-10T09:21:47.047Z,18.70
2018-05-10T09:24:15.297Z,19.10
2018-05-10T09:26:44.257Z,18.40
2018-05-10T09:29:12.459Z,18.40
2018-05-10T09:31:41.466Z,17.40
2018-05-10T09:34:09.680Z,17.40
2018-05-10T09:36:37.896Z,17.20
2018-05-10T09:39:06.911Z,18.00
2018-05-10T09:41:35.828Z,19.60
2018-05-10T09:44:04.076Z,19.50
2018-05-10T09:46:32.328Z,20.30
2018-05-10T09:49:01.288Z,20.50
2018-05-10T09:51:29.530Z,20.50
2018-05-10T09:53:57.736Z,20.60
2018-05-10T09:56:25.956Z,21.10
2018-05-10T09:58:54.218Z,20.90
2018-05-10T10:01:23.180Z,21.40
2018-05-10T10:03:51.417Z,21.40
2018-05-10T10:06:19.644Z,21.50
2018-05-10T10:08:47.793Z,21.50
2018-05-10T10:11:16.026Z,21.60
2018-05-10T10:13:44.177Z,22.10
2018-05-10T10:16:13.154Z,22.30
2018-05-10T10:18:42.247Z,22.70
2018-05-10T10:21:10.432Z,22.60
2018-05-10T10:23:39.380Z,23.40
2018-05-10T10:26:07.579Z,23.40
2018-05-10T10:28:35.770Z,23.80
2018-05-10T10:31:04.800Z,24.00
2018-05-10T10:33:33.072Z,24.00
2018-05-10T10:36:01.356Z,24.70
2018-05-10T10:38:29.578Z,25.20
2018-05-10T10:40:57.833Z,23.40
2018-05-10T10:43:27.990Z,22.90
2018-05-10T10:45:56.647Z,22.40
2018-05-10T10:48:25.794Z,21.50
2018-05-10T10:50:54.910Z,21.50
2018-05-10T10:53:23.168Z,21.40
2018-05-10T10:55:51.515Z,21.30
2018-05-10T10:58:20.088Z,21.50
2018-05-10T11:00:49.536Z,21.60
2018-05-10T11:03:17.945Z,21.50
2018-05-10T11:05:46.291Z,21.80
2018-05-10T11:08:14.630Z,22.80
2018-05-10T11:10:43.857Z,22.80
2018-05-10T11:13:12.073Z,22.80
2018-05-10T11:15:40.282Z,23.60
2018-05-10T11:18:08.554Z,22.90
2018-05-10T11:20:36.928Z,22.60
2018-05-10T11:23:05.953Z,23.10
2018-05-10T11:25:34.569Z,23.10
2018-05-10T11:28:02.848Z,23.40
2018-05-10T11:30:31.868Z,24.50
2018-05-10T11:33:00.162Z,24.50
2018-05-10T11:35:28.277Z,26.00
2018-05-10T11:37:56.464Z,27.30
2018-05-10T11:40:24.629Z,27.60
2018-05-10T11:42:52.823Z,28.60
2018-05-10T11:45:21.799Z,29.90
2018-05-10T11:47:49.997Z,29.90
2018-05-10T11:50:18.693Z,30.00
2018-05-10T11:52:46.933Z,30.60
2018-05-10T11:55:15.275Z,30.20
2018-05-10T11:57:43.969Z,30.50
2018-05-10T12:00:12.728Z,31.00
2018-05-10T12:02:41.076Z,30.80
2018-05-10T12:05:09.217Z,31.30
2018-05-10T12:07:37.548Z,31.30
2018-05-10T12:10:05.764Z,31.50
2018-05-10T12:12:34.331Z,31.90
2018-05-10T12:15:02.549Z,30.60
2018-05-10T12:17:31.510Z,32.60
2018-05-10T12:19:59.710Z,32.50
2018-05-10T12:22:28.693Z,33.00
2018-05-10T12:24:57.689Z,32.60
2018-05-10T12:27:26.697Z,33.00
2018-05-10T12:29:55.686Z,33.80
2018-05-10T12:32:24.622Z,32.50
2018-05-10T12:34:52.834Z,32.50
2018-05-10T12:37:21.795Z,33.20
2018-05-10T12:39:50.109Z,33.20
2018-05-10T12:42:19.171Z,31.90
2018-05-10T12:44:47.547Z,31.80
2018-05-10T12:47:15.817Z,31.20
2018-05-10T12:49:43.995Z,30.50
2018-05-10T12:52:12.989Z,29.10
2018-05-10T12:54:41.169Z,28.50
2018-05-10T12:57:09.468Z,28.10
2018-05-10T12:59:38.431Z,27.50
2018-05-10T13:02:06.641Z,27.50
2018-05-10T13:04:34.913Z,27.60
2018-05-10T13:07:03.995Z,26.50
2018-05-10T13:09:32.975Z,27.20
2018-05-10T13:12:01.339Z,27.10
2018-05-10T13:14:29.616Z,27.30
2018-05-10T13:16:57.879Z,26.40
2018-05-10T13:19:26.176Z,27.00
2018-05-10T13:21:54.380Z,29.00
2018-05-10T13:24:22.582Z,29.50
2018-05-10T13:26:50.765Z,29.70
2018-05-10T13:29:18.980Z,28.60
2018-05-10T13:31:47.996Z,28.50
2018-05-10T13:34:16.364Z,28.50
2018-05-10T13:36:44.649Z,27.60
2018-05-10T13:39:12.895Z,29.30
2018-05-10T13:41:42.521Z,27.50
2018-05-10T13:44:11.493Z,26.60
2018-05-10T13:46:40.542Z,26.30
2018-05-10T13:49:08.745Z,26.30
2018-05-10T13:51:36.981Z,25.90
2018-05-10T13:54:05.257Z,26.00
2018-05-10T13:56:33.616Z,25.80
2018-05-10T13:59:02.010Z,25.90
2018-05-10T14:01:30.197Z,25.00
2018-05-10T14:03:58.530Z,25.40
2018-05-10T14:06:27.608Z,24.10
2018-05-10T14:08:55.943Z,24.10
2018-05-10T14:11:24.271Z,24.50
2018-05-10T14:13:52.603Z,24.20
2018-05-10T14:16:20.879Z,24.40
2018-05-10T14:18:49.164Z,23.50
2018-05-10T14:21:17.629Z,23.30
2018-05-10T14:23:47.265Z,22.60
2018-05-10T14:26:15.635Z,22.50
2018-05-10T14:28:44.647Z,22.80
2018-05-10T14:31:13.020Z,22.80
2018-05-10T14:33:42.246Z,22.00
2018-05-10T14:36:10.572Z,21.90
2018-05-10T14:38:39.497Z,21.50
2018-05-10T14:41:08.901Z,21.10
2018-05-10T14:43:38.268Z,20.70
2018-05-10T14:46:06.780Z,20.60
2018-05-10T14:48:37.164Z,20.30
2018-05-10T14:51:07.945Z,20.20
2018-05-10T14:54:02.899Z,20.20
2018-05-10T14:57:04.838Z,20.00
2018-05-10T14:59:33.998Z,19.60
2018-05-10T15:18:50.810Z,18.30
2018-05-10T15:25:22.937Z,18.30
2018-05-10T15:34:57.066Z,18.10
2018-05-10T15:40:06.476Z,18.20
2018-05-10T15:46:14.579Z,17.90
2018-05-10T15:52:19.235Z,18.10
2018-05-10T15:54:47.893Z,18.20
2018-05-10T15:57:31.018Z,18.00
2018-05-10T16:03:47.565Z,17.90
2018-05-10T16:16:42.451Z,17.60
2018-05-10T16:19:14.128Z,17.80
2018-05-10T16:21:43.908Z,17.80
2018-05-10T16:24:31.415Z,17.60
2018-05-10T16:27:15.567Z,17.60
2018-05-10T16:29:47.038Z,17.50
2018-05-10T16:39:24.212Z,17.50
2018-05-10T16:45:07.209Z,17.40
2018-05-10T17:07:42.483Z,17.30
2018-05-10T17:10:12.348Z,17.20
2018-05-10T17:12:41.720Z,17.10
2018-05-10T17:15:10.901Z,17.00
2018-05-10T17:24:48.424Z,16.60
2018-05-10T17:27:17.946Z,16.60
2018-05-10T17:29:48.682Z,16.60
2018-05-10T17:32:25.679Z,16.50
2018-05-10T17:34:54.357Z,16.40
2018-05-10T17:37:23.590Z,16.10
2018-05-10T17:39:51.958Z,16.10
2018-05-10T17:42:20.364Z,15.90
2018-05-10T17:44:49.539Z,15.70
2018-05-10T17:47:17.837Z,15.70
2018-05-10T17:49:46.228Z,15.50
2018-05-10T17:52:14.562Z,15.60
2018-05-10T17:54:42.841Z,15.40
2018-05-10T17:57:14.984Z,15.60
2018-05-10T17:59:43.625Z,15.30
2018-05-10T18:02:14.726Z,15.20
2018-05-10T18:04:43.037Z,15.10
2018-05-10T18:07:12.104Z,15.10
2018-05-10T18:09:40.313Z,15.10
2018-05-10T18:12:09.167Z,15.10
2018-05-10T18:14:37.529Z,15.10
2018-05-10T18:17:05.899Z,14.90
2018-05-10T18:19:34.300Z,14.70
2018-05-10T18:22:02.762Z,14.80
2018-05-10T18:24:31.061Z,14.70
2018-05-10T18:27:00.122Z,14.40
2018-05-10T18:29:28.601Z,14.40
2018-05-10T18:31:57.102Z,14.40
2018-05-10T18:34:25.816Z,14.30
2018-05-10T18:36:54.080Z,14.30
2018-05-10T18:39:23.130Z,14.20
2018-05-10T18:41:51.437Z,14.20
2018-05-10T18:44:19.666Z,14.20
2018-05-10T18:46:47.940Z,14.20
2018-05-10T18:49:16.207Z,14.00
2018-05-10T18:51:44.439Z,14.10
2018-05-10T18:54:12.637Z,14.00
2018-05-10T18:56:40.940Z,14.00
2018-05-10T18:59:09.517Z,13.90
2018-05-10T19:01:44.457Z,13.70
2018-05-10T19:04:15.962Z,13.70
2018-05-10T19:06:45.721Z,13.70
2018-05-10T19:09:20.850Z,13.60
2018-05-10T19:11:49.178Z,13.60
2018-05-10T19:14:17.780Z,13.50
2018-05-10T19:16:46.476Z,13.50
2018-05-10T19:19:15.766Z,13.30
2018-05-10T19:21:44.390Z,13.30
2018-05-10T19:24:12.805Z,13.30
2018-05-10T19:26:42.088Z,13.20
2018-05-10T19:29:10.577Z,13.10
2018-05-10T19:31:41.942Z,13.10
2018-05-10T19:34:10.946Z,13.00
2018-05-10T19:36:39.962Z,12.70
2018-05-10T19:39:08.374Z,12.70
2018-05-10T19:41:42.015Z,12.70
2018-05-10T19:44:10.376Z,12.60
2018-05-10T19:46:40.851Z,12.70
2018-05-10T19:49:10.350Z,12.70
2018-05-10T19:51:38.685Z,12.60
2018-05-10T19:54:07.958Z,12.50
2018-05-10T19:56:36.168Z,12.50
2018-05-10T19:59:04.444Z,12.50
2018-05-10T20:01:41.206Z,12.40
2018-05-10T20:04:10.816Z,12.30
2018-05-10T20:06:42.587Z,12.30
2018-05-10T20:09:11.714Z,12.30
2018-05-10T20:11:40.189Z,12.20
2018-05-10T20:14:08.502Z,12.20
2018-05-10T20:16:37.216Z,12.20
2018-05-10T20:19:05.517Z,12.20
2018-05-10T20:21:33.768Z,12.00
2018-05-10T20:24:03.346Z,12.10
2018-05-10T20:26:31.712Z,12.00
2018-05-10T20:29:00.123Z,12.00
2018-05-10T20:31:28.501Z,12.00
2018-05-10T20:33:57.855Z,11.90
2018-05-10T20:36:27.201Z,11.90
2018-05-10T20:38:55.544Z,11.80
2018-05-10T20:41:24.663Z,11.80
2018-05-10T20:43:53.747Z,11.80
2018-05-10T20:46:22.043Z,11.70
2018-05-10T20:48:51.636Z,11.70
2018-05-10T20:51:20.468Z,11.70
2018-05-10T20:53:49.220Z,11.70
2018-05-10T20:56:19.613Z,11.60
2018-05-10T20:58:48.142Z,11.50
2018-05-10T21:01:16.637Z,11.60
2018-05-10T21:03:45.028Z,11.60
2018-05-10T21:06:14.318Z,11.50
2018-05-10T21:08:42.682Z,11.50
2018-05-10T21:11:10.904Z,11.50
2018-05-10T21:13:39.445Z,11.40
2018-05-10T21:16:08.026Z,11.40
2018-05-10T21:18:36.478Z,11.40
2018-05-10T21:21:05.142Z,11.30
2018-05-10T21:23:34.340Z,11.20
2018-05-10T21:26:04.146Z,11.20
2018-05-10T21:28:32.494Z,11.20
2018-05-10T21:31:00.784Z,11.10
2018-05-10T21:33:29.270Z,11.20
2018-05-10T21:35:57.633Z,11.20
2018-05-10T21:38:26.803Z,11.20
2018-05-10T21:40:56.171Z,11.20
2018-05-10T21:43:25.061Z,11.10
2018-05-10T21:45:54.293Z,11.00
2018-05-10T21:48:22.703Z,11.00
2018-05-10T21:50:51.118Z,11.60
2018-05-10T21:53:20.164Z,11.00
2018-05-10T21:55:48.484Z,11.00
2018-05-10T21:58:16.831Z,11.00
2018-05-10T22:00:52.447Z,10.90
2018-05-10T22:03:21.090Z,10.80
2018-05-10T22:05:49.366Z,11.00
2018-05-10T22:08:18.417Z,12.00
2018-05-10T22:10:46.789Z,11.90
2018-05-10T22:13:15.128Z,11.20
2018-05-10T22:15:43.385Z,11.00
2018-05-10T22:18:12.609Z,10.80
2018-05-10T22:20:40.874Z,10.70
2018-05-10T22:23:09.439Z,10.70
2018-05-10T22:25:39.151Z,11.40
2018-05-10T22:28:08.849Z,11.70
2018-05-10T22:30:37.401Z,11.70
2018-05-10T22:33:05.814Z,11.80
2018-05-10T22:35:35.228Z,11.80
2018-05-10T22:38:04.823Z,11.90
2018-05-10T22:43:36.516Z,11.80
2018-05-10T22:46:05.077Z,11.80
2018-05-10T22:48:36.238Z,11.80
2018-05-10T22:51:05.262Z,11.70
2018-05-10T22:53:34.498Z,11.70
2018-05-10T22:56:04.530Z,11.60
2018-05-10T22:58:33.632Z,11.50
2018-05-10T23:01:02.229Z,11.60
2018-05-10T23:03:36.006Z,11.60
2018-05-10T23:06:14.685Z,11.60
2018-05-10T23:08:43.501Z,11.50
2018-05-10T23:11:12.905Z,11.50
2018-05-10T23:13:50.065Z,11.40
2018-05-10T23:16:19.971Z,11.40
2018-05-10T23:18:49.279Z,11.40
2018-05-10T23:21:23.417Z,11.40
2018-05-10T23:23:57.503Z,10.60
2018-05-10T23:26:31.422Z,10.40
2018-05-10T23:29:05.592Z,10.30
2018-05-10T23:31:40.216Z,10.10
2018-05-10T23:34:14.044Z,10.10
2018-05-10T23:36:50.018Z,10.00
2018-05-10T23:39:24.849Z,9.90
2018-05-10T23:41:58.858Z,9.90
2018-05-10T23:44:33.074Z,10.00
2018-05-10T23:47:06.981Z,9.90
2018-05-10T23:49:41.312Z,9.90
2018-05-10T23:52:15.517Z,9.80
2018-05-10T23:54:49.319Z,9.80
2018-05-10T23:57:23.233Z,9.70
2018-05-10T23:59:57.195Z,9.70
